Time,TemperatureF,DewpointF,PressureIn,WindDirection,WindDirectionDegrees,WindSpeedMPH,WindSpeedGustMPH,Humidity,HourlyPrecipIn,Conditions,Clouds,dailyrainin,SoftwareType,DateUTC
2013-11-13 00:00:00,35.9,25.7,30.35,NNE,30,11.0,23.0,66,0.00,,---,0.00,VWS V13.00,2013-11-13 05:00:00,
2013-11-13 00:01:00,35.9,25.7,30.35,North,5,5.0,23.0,66,0.00,,---,0.00,VWS V13.00,2013-11-13 05:01:00,
2013-11-13 00:02:00,35.9,25.7,30.36,North,5,6.0,7.0,66,0.00,,---,0.00,VWS V13.00,2013-11-13 05:02:00,
2013-11-13 00:07:00,35.8,25.6,30.36,North,350,9.0,15.0,66,0.00,,---,0.00,VWS V13.00,2013-11-13 05:07:00,
2013-11-13 00:12:00,35.6,25.4,30.36,NNE,19,1.0,22.0,66,0.00,,---,0.00,VWS V13.00,2013-11-13 05:12:00,
2013-11-13 00:17:00,35.3,25.1,30.36,North,11,2.0,22.0,66,0.00,,---,0.00,VWS V13.00,2013-11-13 05:17:00,
2013-11-13 00:22:00,35.1,25.3,30.36,NNW,343,8.0,22.0,67,0.00,,---,0.00,VWS V13.00,2013-11-13 05:22:00,
2013-11-13 00:27:00,34.8,25.0,30.37,North,355,16.0,22.0,67,0.00,,---,0.00,VWS V13.00,2013-11-13 05:27:00,
2013-11-13 00:30:00,34.7,24.9,30.37,NW,318,10.0,22.0,67,0.00,,---,0.00,VWS V13.00,2013-11-13 05:30:00,
2013-11-13 00:31:00,34.7,24.9,30.37,North,355,8.0,16.0,67,0.00,,---,0.00,VWS V13.00,2013-11-13 05:31:00,
2013-11-13 00:36:00,34.4,24.6,30.36,NNW,329,14.0,19.0,67,0.00,,---,0.00,VWS V13.00,2013-11-13 05:36:00,
2013-11-13 00:41:00,34.4,24.6,30.36,NNE,24,7.0,19.0,67,0.00,,---,0.00,VWS V13.00,2013-11-13 05:41:00,
2013-11-13 00:46:00,34.4,24.6,30.37,North,9,4.0,19.0,67,0.00,,---,0.00,VWS V13.00,2013-11-13 05:46:00,
2013-11-13 00:51:00,34.3,24.9,30.36,NNW,346,3.0,19.0,68,0.00,,---,0.00,VWS V13.00,2013-11-13 05:51:00,
2013-11-13 00:56:00,34.1,24.7,30.36,NNW,336,6.0,19.0,68,0.00,,---,0.00,VWS V13.00,2013-11-13 05:56:00,
2013-11-13 01:00:00,34.0,24.6,30.37,NNE,22,7.0,19.0,68,0.00,,---,0.00,VWS V13.00,2013-11-13 06:00:00,
2013-11-13 01:01:00,34.0,24.6,30.37,NNW,333,2.0,7.0,68,0.00,,---,0.00,VWS V13.00,2013-11-13 06:01:00,
2013-11-13 01:06:00,33.9,24.5,30.36,NW,315,5.0,15.0,68,0.00,,---,0.00,VWS V13.00,2013-11-13 06:06:00,
2013-11-13 01:11:00,33.8,24.4,30.36,NW,325,3.0,15.0,68,0.00,,---,0.00,VWS V13.00,2013-11-13 06:11:00,
2013-11-13 01:16:00,33.7,24.3,30.36,North,5,9.0,15.0,68,0.00,,---,0.00,VWS V13.00,2013-11-13 06:16:00,
2013-11-13 01:21:00,33.7,24.6,30.36,NNW,327,11.0,16.0,69,0.00,,---,0.00,VWS V13.00,2013-11-13 06:21:00,
2013-11-13 01:26:00,33.6,24.5,30.35,NNW,346,6.0,16.0,69,0.00,,---,0.00,VWS V13.00,2013-11-13 06:26:00,
2013-11-13 01:30:00,33.6,24.5,30.36,NNE,23,7.0,16.0,69,0.00,,---,0.00,VWS V13.00,2013-11-13 06:30:00,
2013-11-13 01:31:00,33.6,24.5,30.35,North,5,7.0,9.0,69,0.00,,---,0.00,VWS V13.00,2013-11-13 06:31:00,
2013-11-13 01:36:00,33.5,24.4,30.35,NNE,28,9.0,17.0,69,0.00,,---,0.00,VWS V13.00,2013-11-13 06:36:00,
2013-11-13 01:41:00,33.5,24.8,30.35,NNE,15,11.0,17.0,70,0.00,,---,0.00,VWS V13.00,2013-11-13 06:41:00,
2013-11-13 01:46:00,33.6,24.9,30.35,NNW,332,10.0,17.0,70,0.00,,---,0.00,VWS V13.00,2013-11-13 06:46:00,
2013-11-13 01:51:00,33.7,25.0,30.35,North,11,10.0,17.0,70,0.00,,---,0.00,VWS V13.00,2013-11-13 06:51:00,
2013-11-13 01:56:00,33.7,25.0,30.35,NNE,27,6.0,17.0,70,0.00,,---,0.00,VWS V13.00,2013-11-13 06:56:00,
2013-11-13 02:00:00,33.7,25.0,30.34,NNE,28,3.0,17.0,70,0.00,,---,0.00,VWS V13.00,2013-11-13 07:00:00,
2013-11-13 02:01:00,33.7,25.0,30.34,NE,34,3.0,4.0,70,0.00,,---,0.00,VWS V13.00,2013-11-13 07:01:00,
2013-11-13 02:06:00,33.7,25.0,30.34,NNE,24,8.0,14.0,70,0.00,,---,0.00,VWS V13.00,2013-11-13 07:06:00,
2013-11-13 02:11:00,33.8,25.1,30.35,North,360,7.0,14.0,70,0.00,,---,0.00,VWS V13.00,2013-11-13 07:11:00,
2013-11-13 02:16:00,33.8,25.1,30.34,NNW,346,5.0,14.0,70,0.00,,---,0.00,VWS V13.00,2013-11-13 07:16:00,
2013-11-13 02:21:00,33.9,25.2,30.34,North,9,3.0,14.0,70,0.00,,---,0.00,VWS V13.00,2013-11-13 07:21:00,
2013-11-13 02:26:00,33.9,25.5,30.34,NNW,344,9.0,14.0,71,0.00,,---,0.00,VWS V13.00,2013-11-13 07:26:00,
2013-11-13 02:30:00,33.8,25.1,30.34,NW,316,5.0,14.0,70,0.00,,---,0.00,VWS V13.00,2013-11-13 07:30:00,
2013-11-13 02:31:00,33.8,25.1,30.35,NW,321,6.0,6.0,70,0.00,,---,0.00,VWS V13.00,2013-11-13 07:31:00,
2013-11-13 02:36:00,33.8,25.4,30.34,NNW,338,5.0,10.0,71,0.00,,---,0.00,VWS V13.00,2013-11-13 07:36:00,
2013-11-13 02:41:00,33.7,25.3,30.35,NNW,327,5.0,10.0,71,0.00,,---,0.00,VWS V13.00,2013-11-13 07:41:00,
2013-11-13 02:46:00,33.7,25.3,30.35,North,11,2.0,10.0,71,0.00,,---,0.00,VWS V13.00,2013-11-13 07:46:00,
2013-11-13 02:51:00,33.7,25.3,30.35,WNW,283,13.0,13.0,71,0.00,,---,0.00,VWS V13.00,2013-11-13 07:51:00,
2013-11-13 02:56:00,33.7,25.3,30.35,NNW,338,5.0,13.0,71,0.00,,---,0.00,VWS V13.00,2013-11-13 07:56:00,
2013-11-13 03:00:00,33.6,25.2,30.35,NNW,348,13.0,13.0,71,0.00,,---,0.00,VWS V13.00,2013-11-13 08:00:00,
2013-11-13 03:01:00,33.6,25.2,30.35,NNW,348,13.0,13.0,71,0.00,,---,0.00,VWS V13.00,2013-11-13 08:01:00,
2013-11-13 03:06:00,33.5,25.1,30.35,NW,312,4.0,14.0,71,0.00,,---,0.00,VWS V13.00,2013-11-13 08:06:00,
2013-11-13 03:11:00,33.4,25.0,30.35,NW,323,10.0,14.0,71,0.00,,---,0.00,VWS V13.00,2013-11-13 08:11:00,
2013-11-13 03:16:00,33.3,24.9,30.35,NNW,344,4.0,14.0,71,0.00,,---,0.00,VWS V13.00,2013-11-13 08:16:00,
2013-11-13 03:24:00,33.2,24.8,30.35,NNW,329,4.0,4.0,71,0.00,,---,0.00,VWS V13.00,2013-11-13 08:24:00,
2013-11-13 03:29:00,33.0,25.0,30.35,NNW,332,11.0,15.0,72,0.00,,---,0.00,VWS V13.00,2013-11-13 08:29:00,
2013-11-13 03:34:00,32.9,24.9,30.35,NW,324,11.0,13.0,72,0.00,,---,0.00,VWS V13.00,2013-11-13 08:34:00,
2013-11-13 03:39:00,32.8,24.5,30.35,NNW,343,3.0,16.0,71,0.00,,---,0.00,VWS V13.00,2013-11-13 08:39:00,
2013-11-13 03:44:00,32.7,24.7,30.35,NNE,25,3.0,16.0,72,0.00,,---,0.00,VWS V13.00,2013-11-13 08:44:00,
2013-11-13 03:49:00,32.6,24.6,30.35,North,355,3.0,16.0,72,0.00,,---,0.00,VWS V13.00,2013-11-13 08:49:00,
2013-11-13 03:54:00,32.5,24.5,30.35,North,355,4.0,16.0,72,0.00,,---,0.00,VWS V13.00,2013-11-13 08:54:00,
2013-11-13 03:59:00,32.4,24.4,30.35,NNE,32,6.0,17.0,72,0.00,,---,0.00,VWS V13.00,2013-11-13 08:59:00,
2013-11-13 04:04:00,32.3,24.3,30.35,NNW,347,10.0,13.0,72,0.00,,---,0.00,VWS V13.00,2013-11-13 09:04:00,
2013-11-13 04:09:00,32.2,24.2,30.35,NNE,22,11.0,15.0,72,0.00,,---,0.00,VWS V13.00,2013-11-13 09:09:00,
2013-11-13 04:14:00,32.1,24.1,30.35,NNE,28,7.0,16.0,72,0.00,,---,0.00,VWS V13.00,2013-11-13 09:14:00,
2013-11-13 04:19:00,32.0,24.0,30.35,NNW,338,10.0,17.0,72,0.00,,---,0.00,VWS V13.00,2013-11-13 09:19:00,
2013-11-13 04:24:00,32.0,23.7,30.36,NW,321,7.0,17.0,71,0.00,,---,0.00,VWS V13.00,2013-11-13 09:24:00,
2013-11-13 04:29:00,32.0,23.7,30.36,NNW,333,10.0,17.0,71,0.00,,---,0.00,VWS V13.00,2013-11-13 09:29:00,
2013-11-13 04:34:00,31.9,23.6,30.36,North,360,7.0,15.0,71,0.00,,---,0.00,VWS V13.00,2013-11-13 09:34:00,
2013-11-13 04:39:00,31.9,23.6,30.36,NW,315,11.0,15.0,71,0.00,,---,0.00,VWS V13.00,2013-11-13 09:39:00,
2013-11-13 04:44:00,31.9,23.6,30.37,NNW,339,3.0,15.0,71,0.00,,---,0.00,VWS V13.00,2013-11-13 09:44:00,
2013-11-13 04:49:00,31.8,23.5,30.37,NW,323,5.0,15.0,71,0.00,,---,0.00,VWS V13.00,2013-11-13 09:49:00,
2013-11-13 04:54:00,31.8,23.5,30.38,NNW,340,5.0,15.0,71,0.00,,---,0.00,VWS V13.00,2013-11-13 09:54:00,
2013-11-13 04:59:00,31.7,23.4,30.38,NW,315,4.0,15.0,71,0.00,,---,0.00,VWS V13.00,2013-11-13 09:59:00,
2013-11-13 05:04:00,31.6,23.3,30.38,NNW,329,5.0,13.0,71,0.00,,---,0.00,VWS V13.00,2013-11-13 10:04:00,
2013-11-13 05:09:00,31.6,23.3,30.39,North,355,5.0,18.0,71,0.00,,---,0.00,VWS V13.00,2013-11-13 10:09:00,
2013-11-13 05:14:00,31.6,23.3,30.39,NNW,346,8.0,18.0,71,0.00,,---,0.00,VWS V13.00,2013-11-13 10:14:00,
2013-11-13 05:19:00,31.6,23.3,30.39,NW,315,8.0,18.0,71,0.00,,---,0.00,VWS V13.00,2013-11-13 10:19:00,
2013-11-13 05:24:00,31.5,23.2,30.39,North,349,6.0,18.0,71,0.00,,---,0.00,VWS V13.00,2013-11-13 10:24:00,
2013-11-13 05:29:00,31.5,23.2,30.39,NW,318,8.0,18.0,71,0.00,,---,0.00,VWS V13.00,2013-11-13 10:29:00,
2013-11-13 05:34:00,31.5,23.2,30.40,NNW,336,8.0,13.0,71,0.00,,---,0.00,VWS V13.00,2013-11-13 10:34:00,
2013-11-13 05:39:00,31.5,23.2,30.40,NW,309,4.0,14.0,71,0.00,,---,0.00,VWS V13.00,2013-11-13 10:39:00,
2013-11-13 05:44:00,31.4,23.1,30.40,NW,325,9.0,18.0,71,0.00,,---,0.00,VWS V13.00,2013-11-13 10:44:00,
2013-11-13 05:49:00,31.4,22.8,30.40,NW,323,3.0,18.0,70,0.00,,---,0.00,VWS V13.00,2013-11-13 10:49:00,
2013-11-13 05:54:00,31.4,22.8,30.40,NW,320,0.0,18.0,70,0.00,,---,0.00,VWS V13.00,2013-11-13 10:54:00,
2013-11-13 05:59:00,31.4,22.8,30.40,NNW,333,6.0,18.0,70,0.00,,---,0.00,VWS V13.00,2013-11-13 10:59:00,
2013-11-13 06:04:00,31.4,22.8,30.40,North,5,14.0,16.0,70,0.00,,---,0.00,VWS V13.00,2013-11-13 11:04:00,
2013-11-13 06:09:00,31.4,22.8,30.40,NNW,338,8.0,16.0,70,0.00,,---,0.00,VWS V13.00,2013-11-13 11:09:00,
2013-11-13 06:14:00,31.4,22.8,30.41,North,355,14.0,16.0,70,0.00,,---,0.00,VWS V13.00,2013-11-13 11:14:00,
2013-11-13 06:19:00,31.4,22.8,30.41,NNW,343,6.0,16.0,70,0.00,,---,0.00,VWS V13.00,2013-11-13 11:19:00,
2013-11-13 06:24:00,31.4,22.8,30.41,NNW,345,12.0,16.0,70,0.00,,---,0.00,VWS V13.00,2013-11-13 11:24:00,
2013-11-13 06:29:00,31.3,22.7,30.42,North,5,6.0,16.0,70,0.00,,---,0.00,VWS V13.00,2013-11-13 11:29:00,
2013-11-13 06:34:00,31.3,22.7,30.42,NNW,328,9.0,13.0,70,0.00,,---,0.00,VWS V13.00,2013-11-13 11:34:00,
2013-11-13 06:39:00,31.2,22.6,30.42,NW,319,5.0,15.0,70,0.00,,---,0.00,VWS V13.00,2013-11-13 11:39:00,
2013-11-13 06:44:00,31.3,22.7,30.42,North,5,5.0,16.0,70,0.00,,---,0.00,VWS V13.00,2013-11-13 11:44:00,
2013-11-13 06:49:00,31.3,22.7,30.42,NNW,347,6.0,16.0,70,0.00,,---,0.00,VWS V13.00,2013-11-13 11:49:00,
2013-11-13 06:54:00,31.2,22.6,30.43,NNW,331,9.0,16.0,70,0.00,,---,0.00,VWS V13.00,2013-11-13 11:54:00,
2013-11-13 06:59:00,31.2,22.6,30.43,NW,309,5.0,16.0,70,0.00,,---,0.00,VWS V13.00,2013-11-13 11:59:00,
2013-11-13 07:04:00,31.2,22.6,30.43,NNW,342,6.0,12.0,70,0.00,,---,0.00,VWS V13.00,2013-11-13 12:04:00,
2013-11-13 07:09:00,31.3,22.7,30.43,North,360,5.0,19.0,70,0.00,,---,0.00,VWS V13.00,2013-11-13 12:09:00,
2013-11-13 07:14:00,31.4,22.8,30.43,NNE,26,4.0,19.0,70,0.00,,---,0.00,VWS V13.00,2013-11-13 12:14:00,
2013-11-13 07:19:00,31.5,22.9,30.44,NNE,18,3.0,19.0,70,0.00,,---,0.00,VWS V13.00,2013-11-13 12:19:00,
2013-11-13 07:24:00,31.6,23.0,30.43,North,355,5.0,19.0,70,0.00,,---,0.00,VWS V13.00,2013-11-13 12:24:00,
2013-11-13 07:29:00,31.8,23.1,30.44,NNE,23,6.0,19.0,70,0.00,,---,0.00,VWS V13.00,2013-11-13 12:29:00,
2013-11-13 07:34:00,32.0,23.3,30.44,NW,315,4.0,14.0,70,0.00,,---,0.00,VWS V13.00,2013-11-13 12:34:00,
2013-11-13 07:39:00,32.2,23.5,30.44,North,360,12.0,14.0,70,0.00,,---,0.00,VWS V13.00,2013-11-13 12:39:00,
2013-11-13 07:44:00,32.3,23.6,30.45,NNE,20,5.0,20.0,70,0.00,,---,0.00,VWS V13.00,2013-11-13 12:44:00,
2013-11-13 07:49:00,32.4,23.7,30.45,NNE,23,4.0,20.0,70,0.00,,---,0.00,VWS V13.00,2013-11-13 12:49:00,
2013-11-13 07:54:00,32.6,23.9,30.44,NNW,327,13.0,20.0,70,0.00,,---,0.00,VWS V13.00,2013-11-13 12:54:00,
2013-11-13 07:59:00,32.9,24.2,30.45,NNE,17,12.0,22.0,70,0.00,,---,0.00,VWS V13.00,2013-11-13 12:59:00,
2013-11-13 08:04:00,33.2,24.5,30.45,NNE,19,9.0,20.0,70,0.00,,---,0.00,VWS V13.00,2013-11-13 13:04:00,
2013-11-13 08:09:00,33.5,24.8,30.46,NNW,331,4.0,20.0,70,0.00,,---,0.00,VWS V13.00,2013-11-13 13:09:00,
2013-11-13 08:14:00,33.8,25.1,30.46,North,349,7.0,20.0,70,0.00,,---,0.00,VWS V13.00,2013-11-13 13:14:00,
2013-11-13 08:19:00,34.1,25.4,30.46,NNW,338,5.0,20.0,70,0.00,,---,0.00,VWS V13.00,2013-11-13 13:19:00,
2013-11-13 08:24:00,34.4,25.6,30.46,North,5,8.0,20.0,70,0.00,,---,0.00,VWS V13.00,2013-11-13 13:24:00,
2013-11-13 08:29:00,34.7,25.9,30.46,NNW,342,6.0,20.0,70,0.00,,---,0.00,VWS V13.00,2013-11-13 13:29:00,
2013-11-13 08:34:00,35.0,26.2,30.46,North,355,10.0,20.0,70,0.00,,---,0.00,VWS V13.00,2013-11-13 13:34:00,
2013-11-13 08:39:00,35.2,26.4,30.46,North,5,16.0,22.0,70,0.00,,---,0.00,VWS V13.00,2013-11-13 13:39:00,
2013-11-13 08:44:00,35.5,26.4,30.46,NNE,20,5.0,22.0,69,0.00,,---,0.00,VWS V13.00,2013-11-13 13:44:00,
2013-11-13 08:49:00,35.8,26.6,30.46,NNW,343,9.0,22.0,69,0.00,,---,0.00,VWS V13.00,2013-11-13 13:49:00,
2013-11-13 08:54:00,35.9,26.7,30.46,North,11,7.0,22.0,69,0.00,,---,0.00,VWS V13.00,2013-11-13 13:54:00,
2013-11-13 08:59:00,36.0,26.5,30.46,NNE,15,11.0,22.0,68,0.00,,---,0.00,VWS V13.00,2013-11-13 13:59:00,
2013-11-13 09:04:00,36.2,26.7,30.46,NNE,20,15.0,21.0,68,0.00,,---,0.00,VWS V13.00,2013-11-13 14:04:00,
2013-11-13 09:09:00,36.5,27.3,30.46,NNW,340,5.0,21.0,69,0.00,,---,0.00,VWS V13.00,2013-11-13 14:09:00,
2013-11-13 09:14:00,37.0,27.4,30.46,North,5,13.0,21.0,68,0.00,,---,0.00,VWS V13.00,2013-11-13 14:14:00,
2013-11-13 09:19:00,37.2,27.6,30.46,North,355,9.0,21.0,68,0.01,,---,0.01,VWS V13.00,2013-11-13 14:19:00,
2013-11-13 09:24:00,37.4,27.8,30.47,North,5,6.0,21.0,68,0.01,,---,0.01,VWS V13.00,2013-11-13 14:24:00,
2013-11-13 09:29:00,37.7,28.1,30.47,NW,325,8.0,23.0,68,0.01,,---,0.01,VWS V13.00,2013-11-13 14:29:00,
2013-11-13 09:34:00,37.8,27.8,30.47,North,355,6.0,27.0,67,0.01,,---,0.01,VWS V13.00,2013-11-13 14:34:00,
2013-11-13 09:39:00,37.9,27.9,30.47,NNW,327,9.0,27.0,67,0.01,,---,0.01,VWS V13.00,2013-11-13 14:39:00,
2013-11-13 09:44:00,38.1,28.1,30.47,North,355,13.0,27.0,67,0.01,,---,0.01,VWS V13.00,2013-11-13 14:44:00,
2013-11-13 09:49:00,38.3,28.0,30.47,NNE,20,8.0,27.0,66,0.01,,---,0.01,VWS V13.00,2013-11-13 14:49:00,
2013-11-13 09:54:00,38.6,28.2,30.47,NNE,21,8.0,27.0,66,0.02,,---,0.02,VWS V13.00,2013-11-13 14:54:00,
2013-11-13 09:59:00,39.0,28.6,30.47,North,355,9.0,27.0,66,0.02,,---,0.02,VWS V13.00,2013-11-13 14:59:00,
2013-11-13 10:04:00,39.2,28.8,30.47,NW,319,13.0,18.0,66,0.02,,---,0.02,VWS V13.00,2013-11-13 15:04:00,
2013-11-13 10:09:00,39.5,28.7,30.47,NNW,346,7.0,21.0,65,0.02,,---,0.02,VWS V13.00,2013-11-13 15:09:00,
2013-11-13 10:14:00,39.6,28.8,30.47,North,5,11.0,21.0,65,0.02,,---,0.02,VWS V13.00,2013-11-13 15:14:00,
2013-11-13 10:19:00,39.6,28.8,30.47,NNW,330,9.0,23.0,65,0.02,,---,0.02,VWS V13.00,2013-11-13 15:19:00,
2013-11-13 10:24:00,39.7,28.5,30.46,NNE,12,10.0,23.0,64,0.02,,---,0.02,VWS V13.00,2013-11-13 15:24:00,
2013-11-13 10:29:00,39.8,28.6,30.46,NNW,348,6.0,23.0,64,0.02,,---,0.02,VWS V13.00,2013-11-13 15:29:00,
2013-11-13 10:34:00,40.0,28.8,30.46,NNW,347,18.0,21.0,64,0.01,,---,0.02,VWS V13.00,2013-11-13 15:34:00,
2013-11-13 10:39:00,40.3,29.1,30.47,NNW,347,16.0,21.0,64,0.01,,---,0.02,VWS V13.00,2013-11-13 15:39:00,
2013-11-13 10:44:00,40.6,29.0,30.46,NNW,342,8.0,21.0,63,0.01,,---,0.02,VWS V13.00,2013-11-13 15:44:00,
2013-11-13 10:49:00,40.9,29.7,30.46,NNW,343,9.0,21.0,64,0.01,,---,0.02,VWS V13.00,2013-11-13 15:49:00,
2013-11-13 10:54:00,41.2,29.6,30.46,NNW,344,18.0,22.0,63,0.01,,---,0.02,VWS V13.00,2013-11-13 15:54:00,
2013-11-13 10:59:00,41.3,29.7,30.46,North,360,22.0,22.0,63,0.01,,---,0.02,VWS V13.00,2013-11-13 15:59:00,
2013-11-13 11:04:00,41.2,29.2,30.46,North,360,11.0,23.0,62,0.00,,---,0.02,VWS V13.00,2013-11-13 16:04:00,
2013-11-13 11:09:00,41.3,29.3,30.46,North,360,14.0,26.0,62,0.00,,---,0.02,VWS V13.00,2013-11-13 16:09:00,
2013-11-13 11:14:00,41.4,29.0,30.46,North,355,15.0,26.0,61,0.00,,---,0.02,VWS V13.00,2013-11-13 16:14:00,
2013-11-13 11:19:00,41.6,29.2,30.45,North,5,5.0,26.0,61,0.00,,---,0.02,VWS V13.00,2013-11-13 16:19:00,
2013-11-13 11:24:00,42.0,29.5,30.45,NNW,337,3.0,26.0,61,0.00,,---,0.02,VWS V13.00,2013-11-13 16:24:00,
2013-11-13 11:29:00,42.3,29.8,30.45,NNW,327,4.0,26.0,61,0.00,,---,0.02,VWS V13.00,2013-11-13 16:29:00,
2013-11-13 11:34:00,42.3,29.4,30.45,North,355,10.0,22.0,60,0.00,,---,0.02,VWS V13.00,2013-11-13 16:34:00,
2013-11-13 11:39:00,42.2,28.9,30.45,North,355,10.0,24.0,59,0.00,,---,0.02,VWS V13.00,2013-11-13 16:39:00,
2013-11-13 11:44:00,42.2,29.3,30.45,NW,312,13.0,24.0,60,0.00,,---,0.02,VWS V13.00,2013-11-13 16:44:00,
2013-11-13 11:48:00,42.5,29.2,30.45,NE,38,10.0,25.0,59,0.00,,---,0.02,VWS V13.00,2013-11-13 16:48:00,
2013-11-13 11:53:00,42.5,29.2,30.45,NNE,12,11.0,25.0,59,0.00,,---,0.02,VWS V13.00,2013-11-13 16:53:00,
2013-11-13 11:58:00,42.6,29.3,30.44,North,9,10.0,25.0,59,0.00,,---,0.02,VWS V13.00,2013-11-13 16:58:00,
2013-11-13 12:03:00,42.7,29.4,30.44,WNW,299,6.0,18.0,59,0.00,,---,0.02,VWS V13.00,2013-11-13 17:03:00,
2013-11-13 12:08:00,42.8,29.1,30.44,North,5,7.0,22.0,58,0.00,,---,0.02,VWS V13.00,2013-11-13 17:08:00,
2013-11-13 12:13:00,42.9,29.2,30.44,NW,319,6.0,22.0,58,0.00,,---,0.02,VWS V13.00,2013-11-13 17:13:00,
2013-11-13 12:18:00,43.0,29.2,30.44,NNE,12,16.0,22.0,58,0.00,,---,0.02,VWS V13.00,2013-11-13 17:18:00,
2013-11-13 12:23:00,43.3,29.1,30.44,North,5,10.0,22.0,57,0.00,,---,0.02,VWS V13.00,2013-11-13 17:23:00,
2013-11-13 12:28:00,43.4,29.2,30.44,North,5,12.0,22.0,57,0.00,,---,0.02,VWS V13.00,2013-11-13 17:28:00,
2013-11-13 12:33:00,43.7,29.5,30.44,NNE,24,13.0,18.0,57,0.00,,---,0.02,VWS V13.00,2013-11-13 17:33:00,
2013-11-13 12:38:00,44.1,29.9,30.44,NNW,340,9.0,18.0,57,0.00,,---,0.02,VWS V13.00,2013-11-13 17:38:00,
2013-11-13 12:43:00,44.1,29.4,30.44,North,5,10.0,18.0,56,0.00,,---,0.02,VWS V13.00,2013-11-13 17:43:00,
2013-11-13 12:48:00,44.2,29.5,30.44,NNE,24,7.0,19.0,56,0.00,,---,0.02,VWS V13.00,2013-11-13 17:48:00,
2013-11-13 12:53:00,44.0,29.3,30.43,NNE,27,12.0,19.0,56,0.00,,---,0.02,VWS V13.00,2013-11-13 17:53:00,
2013-11-13 12:58:00,44.0,28.9,30.43,NW,325,7.0,19.0,55,0.00,,---,0.02,VWS V13.00,2013-11-13 17:58:00,
2013-11-13 13:03:00,44.2,29.1,30.43,NW,312,5.0,18.0,55,0.00,,---,0.02,VWS V13.00,2013-11-13 18:03:00,
2013-11-13 13:08:00,44.2,29.1,30.43,NNW,337,4.0,18.0,55,0.00,,---,0.02,VWS V13.00,2013-11-13 18:08:00,
2013-11-13 13:13:00,44.3,29.2,30.43,North,355,6.0,18.0,55,0.00,,---,0.02,VWS V13.00,2013-11-13 18:13:00,
2013-11-13 13:18:00,44.3,29.2,30.43,North,360,7.0,20.0,55,0.00,,---,0.02,VWS V13.00,2013-11-13 18:18:00,
2013-11-13 13:23:00,44.3,29.2,30.43,NNE,30,12.0,20.0,55,0.00,,---,0.02,VWS V13.00,2013-11-13 18:23:00,
2013-11-13 13:28:00,44.3,28.7,30.43,NNE,18,11.0,20.0,54,0.00,,---,0.02,VWS V13.00,2013-11-13 18:28:00,
2013-11-13 13:33:00,44.5,28.9,30.43,NW,319,7.0,18.0,54,0.00,,---,0.02,VWS V13.00,2013-11-13 18:33:00,
2013-11-13 13:38:00,44.6,29.0,30.43,NNE,26,12.0,23.0,54,0.00,,---,0.02,VWS V13.00,2013-11-13 18:38:00,
2013-11-13 13:43:00,44.7,29.1,30.43,NNW,339,15.0,23.0,54,0.00,,---,0.02,VWS V13.00,2013-11-13 18:43:00,
2013-11-13 13:48:00,44.9,29.3,30.43,NNW,344,8.0,23.0,54,0.00,,---,0.02,VWS V13.00,2013-11-13 18:48:00,
2013-11-13 13:53:00,44.9,28.8,30.43,NW,307,12.0,23.0,53,0.00,,---,0.02,VWS V13.00,2013-11-13 18:53:00,
2013-11-13 13:58:00,44.8,29.2,30.42,NNW,344,1.0,23.0,54,0.00,,---,0.02,VWS V13.00,2013-11-13 18:58:00,
2013-11-13 14:03:00,44.9,28.8,30.43,NNW,334,7.0,17.0,53,0.00,,---,0.02,VWS V13.00,2013-11-13 19:03:00,
2013-11-13 14:08:00,44.9,28.8,30.43,WNW,302,3.0,18.0,53,0.00,,---,0.02,VWS V13.00,2013-11-13 19:08:00,
2013-11-13 14:13:00,44.9,28.8,30.42,West,281,0.0,18.0,53,0.00,,---,0.02,VWS V13.00,2013-11-13 19:13:00,
2013-11-13 14:18:00,44.9,28.8,30.42,North,350,8.0,18.0,53,0.00,,---,0.02,VWS V13.00,2013-11-13 19:18:00,
2013-11-13 14:23:00,44.9,28.8,30.42,NNW,343,6.0,18.0,53,0.00,,---,0.02,VWS V13.00,2013-11-13 19:23:00,
2013-11-13 14:28:00,44.8,28.3,30.42,North,355,9.0,18.0,52,0.00,,---,0.02,VWS V13.00,2013-11-13 19:28:00,
2013-11-13 14:33:00,44.6,28.1,30.42,North,360,5.0,14.0,52,0.00,,---,0.02,VWS V13.00,2013-11-13 19:33:00,
2013-11-13 14:38:00,44.6,28.1,30.42,NW,313,7.0,19.0,52,0.00,,---,0.02,VWS V13.00,2013-11-13 19:38:00,
2013-11-13 14:43:00,44.4,27.9,30.42,NNW,333,9.0,20.0,52,0.00,,---,0.02,VWS V13.00,2013-11-13 19:43:00,
2013-11-13 14:48:00,44.4,27.9,30.42,North,351,8.0,20.0,52,0.00,,---,0.02,VWS V13.00,2013-11-13 19:48:00,
2013-11-13 14:53:00,44.6,28.1,30.42,NNW,340,4.0,20.0,52,0.00,,---,0.02,VWS V13.00,2013-11-13 19:53:00,
2013-11-13 14:58:00,44.7,28.2,30.43,NNW,329,8.0,20.0,52,0.00,,---,0.02,VWS V13.00,2013-11-13 19:58:00,
2013-11-13 15:03:00,44.7,28.2,30.43,North,355,6.0,13.0,52,0.00,,---,0.02,VWS V13.00,2013-11-13 20:03:00,
2013-11-13 15:08:00,44.4,27.9,30.43,North,11,7.0,15.0,52,0.00,,---,0.02,VWS V13.00,2013-11-13 20:08:00,
2013-11-13 15:13:00,44.3,27.8,30.43,North,5,9.0,21.0,52,0.00,,---,0.02,VWS V13.00,2013-11-13 20:13:00,
2013-11-13 15:18:00,44.0,27.0,30.43,NNW,331,7.0,21.0,51,0.00,,---,0.02,VWS V13.00,2013-11-13 20:18:00,
2013-11-13 15:23:00,43.9,27.4,30.43,North,9,6.0,21.0,52,0.00,,---,0.02,VWS V13.00,2013-11-13 20:23:00,
2013-11-13 15:28:00,43.8,27.3,30.44,NW,325,1.0,21.0,52,0.00,,---,0.02,VWS V13.00,2013-11-13 20:28:00,
2013-11-13 15:33:00,43.7,27.2,30.44,NW,323,6.0,11.0,52,0.00,,---,0.02,VWS V13.00,2013-11-13 20:33:00,
2013-11-13 15:38:00,43.6,27.1,30.44,NNW,342,6.0,13.0,52,0.00,,---,0.02,VWS V13.00,2013-11-13 20:38:00,
2013-11-13 15:43:00,43.5,27.1,30.44,NNW,340,8.0,13.0,52,0.00,,---,0.02,VWS V13.00,2013-11-13 20:43:00,
2013-11-13 15:48:00,43.4,27.0,30.45,NE,46,7.0,13.0,52,0.00,,---,0.02,VWS V13.00,2013-11-13 20:48:00,
2013-11-13 15:53:00,43.3,26.9,30.45,NNW,335,8.0,13.0,52,0.00,,---,0.02,VWS V13.00,2013-11-13 20:53:00,
2013-11-13 15:58:00,43.2,26.8,30.45,NNW,348,7.0,13.0,52,0.00,,---,0.02,VWS V13.00,2013-11-13 20:58:00,
2013-11-13 16:03:00,43.1,26.7,30.45,NNW,329,1.0,14.0,52,0.00,,---,0.02,VWS V13.00,2013-11-13 21:03:00,
2013-11-13 16:08:00,43.0,26.6,30.45,North,355,3.0,14.0,52,0.00,,---,0.02,VWS V13.00,2013-11-13 21:08:00,
2013-11-13 16:13:00,42.9,26.5,30.45,North,355,7.0,14.0,52,0.00,,---,0.02,VWS V13.00,2013-11-13 21:13:00,
2013-11-13 16:18:00,42.7,26.3,30.45,North,355,7.0,14.0,52,0.00,,---,0.02,VWS V13.00,2013-11-13 21:18:00,
2013-11-13 16:23:00,42.6,26.2,30.45,North,11,11.0,14.0,52,0.00,,---,0.02,VWS V13.00,2013-11-13 21:23:00,
2013-11-13 16:28:00,42.4,26.0,30.45,NNW,343,5.0,14.0,52,0.00,,---,0.02,VWS V13.00,2013-11-13 21:28:00,
2013-11-13 16:33:00,42.3,25.5,30.46,North,360,6.0,9.0,51,0.00,,---,0.02,VWS V13.00,2013-11-13 21:33:00,
2013-11-13 16:38:00,42.1,25.3,30.46,NNW,347,6.0,12.0,51,0.00,,---,0.02,VWS V13.00,2013-11-13 21:38:00,
2013-11-13 16:43:00,41.9,25.6,30.45,NNE,26,4.0,12.0,52,0.00,,---,0.02,VWS V13.00,2013-11-13 21:43:00,
2013-11-13 16:48:00,41.8,25.5,30.45,NNW,342,3.0,12.0,52,0.00,,---,0.02,VWS V13.00,2013-11-13 21:48:00,
2013-11-13 16:53:00,41.6,25.3,30.45,NW,323,7.0,12.0,52,0.00,,---,0.02,VWS V13.00,2013-11-13 21:53:00,
2013-11-13 16:58:00,41.4,25.1,30.45,NNW,331,3.0,12.0,52,0.00,,---,0.02,VWS V13.00,2013-11-13 21:58:00,
2013-11-13 17:03:00,41.1,24.8,30.46,NNW,348,0.0,6.0,52,0.00,,---,0.02,VWS V13.00,2013-11-13 22:03:00,
2013-11-13 17:08:00,40.9,24.6,30.46,NNW,338,1.0,9.0,52,0.00,,---,0.02,VWS V13.00,2013-11-13 22:08:00,
2013-11-13 17:13:00,40.7,24.9,30.46,North,350,1.0,9.0,53,0.00,,---,0.02,VWS V13.00,2013-11-13 22:13:00,
2013-11-13 17:18:00,40.5,24.7,30.46,NNW,342,2.0,9.0,53,0.00,,---,0.02,VWS V13.00,2013-11-13 22:18:00,
2013-11-13 17:23:00,40.2,24.5,30.47,North,355,2.0,9.0,53,0.00,,---,0.02,VWS V13.00,2013-11-13 22:23:00,
2013-11-13 17:28:00,39.9,24.2,30.47,NNW,344,3.0,9.0,53,0.00,,---,0.02,VWS V13.00,2013-11-13 22:28:00,
2013-11-13 17:33:00,39.5,24.2,30.47,NNW,327,4.0,4.0,54,0.00,,---,0.02,VWS V13.00,2013-11-13 22:33:00,
2013-11-13 17:38:00,39.2,24.0,30.47,NNW,336,1.0,6.0,54,0.00,,---,0.02,VWS V13.00,2013-11-13 22:38:00,
2013-11-13 17:43:00,39.1,23.9,30.48,NNW,340,5.0,6.0,54,0.00,,---,0.02,VWS V13.00,2013-11-13 22:43:00,
2013-11-13 17:48:00,38.9,23.7,30.48,North,11,4.0,6.0,54,0.00,,---,0.02,VWS V13.00,2013-11-13 22:48:00,
2013-11-13 17:53:00,38.7,23.9,30.48,NW,306,1.0,6.0,55,0.00,,---,0.02,VWS V13.00,2013-11-13 22:53:00,
2013-11-13 17:58:00,38.5,23.8,30.48,NNW,336,0.0,6.0,55,0.00,,---,0.02,VWS V13.00,2013-11-13 22:58:00,
2013-11-13 18:03:00,38.3,23.6,30.48,North,9,2.0,5.0,55,0.00,,---,0.02,VWS V13.00,2013-11-13 23:03:00,
2013-11-13 18:08:00,38.0,23.3,30.49,NW,306,0.0,5.0,55,0.00,,---,0.02,VWS V13.00,2013-11-13 23:08:00,
2013-11-13 18:13:00,37.8,23.5,30.49,NNW,331,1.0,6.0,56,0.00,,---,0.02,VWS V13.00,2013-11-13 23:13:00,
2013-11-13 18:18:00,37.7,23.4,30.49,NNW,342,4.0,8.0,56,0.00,,---,0.02,VWS V13.00,2013-11-13 23:18:00,
2013-11-13 18:23:00,37.7,23.4,30.49,NNW,336,2.0,8.0,56,0.00,,---,0.02,VWS V13.00,2013-11-13 23:23:00,
2013-11-13 18:28:00,37.8,23.5,30.49,NNW,347,3.0,8.0,56,0.00,,---,0.02,VWS V13.00,2013-11-13 23:28:00,
2013-11-13 18:33:00,37.8,23.5,30.49,NNW,345,1.0,4.0,56,0.00,,---,0.02,VWS V13.00,2013-11-13 23:33:00,
2013-11-13 18:38:00,37.8,23.5,30.49,NNW,344,4.0,7.0,56,0.00,,---,0.02,VWS V13.00,2013-11-13 23:38:00,
2013-11-13 18:43:00,37.7,23.4,30.49,NNW,340,4.0,7.0,56,0.00,,---,0.02,VWS V13.00,2013-11-13 23:43:00,
2013-11-13 18:48:00,37.7,23.4,30.49,NNW,338,2.0,7.0,56,0.00,,---,0.02,VWS V13.00,2013-11-13 23:48:00,
2013-11-13 18:53:00,37.6,23.3,30.49,NNW,348,4.0,7.0,56,0.00,,---,0.02,VWS V13.00,2013-11-13 23:53:00,
2013-11-13 18:58:00,37.4,23.1,30.49,North,355,4.0,7.0,56,0.00,,---,0.02,VWS V13.00,2013-11-13 23:58:00,
2013-11-13 19:03:00,37.3,23.5,30.49,NNW,346,2.0,4.0,57,0.00,,---,0.02,VWS V13.00,2013-11-14 00:03:00,
2013-11-13 19:08:00,37.3,23.5,30.49,NNW,338,2.0,8.0,57,0.00,,---,0.02,VWS V13.00,2013-11-14 00:08:00,
2013-11-13 19:13:00,37.2,23.4,30.49,NNW,346,1.0,8.0,57,0.00,,---,0.02,VWS V13.00,2013-11-14 00:13:00,
2013-11-13 19:18:00,37.1,23.3,30.49,NNW,331,3.0,8.0,57,0.00,,---,0.02,VWS V13.00,2013-11-14 00:18:00,
2013-11-13 19:23:00,37.0,23.2,30.49,NNW,333,2.0,8.0,57,0.00,,---,0.02,VWS V13.00,2013-11-14 00:23:00,
2013-11-13 19:28:00,36.8,23.0,30.49,NW,319,1.0,8.0,57,0.00,,---,0.02,VWS V13.00,2013-11-14 00:28:00,
2013-11-13 19:33:00,36.6,22.8,30.49,NNW,344,2.0,5.0,57,0.00,,---,0.02,VWS V13.00,2013-11-14 00:33:00,
2013-11-13 19:38:00,36.5,22.7,30.49,NNW,332,1.0,7.0,57,0.00,,---,0.02,VWS V13.00,2013-11-14 00:38:00,
2013-11-13 19:43:00,36.3,22.5,30.49,NNW,335,1.0,7.0,57,0.00,,---,0.02,VWS V13.00,2013-11-14 00:43:00,
2013-11-13 19:48:00,36.2,22.5,30.50,North,5,0.0,7.0,57,0.00,,---,0.02,VWS V13.00,2013-11-14 00:48:00,
2013-11-13 19:53:00,36.1,22.8,30.50,NW,325,0.0,7.0,58,0.00,,---,0.02,VWS V13.00,2013-11-14 00:53:00,
2013-11-13 19:58:00,35.9,22.6,30.50,North,355,2.0,7.0,58,0.00,,---,0.02,VWS V13.00,2013-11-14 00:58:00,
2013-11-13 20:03:00,35.7,22.4,30.50,North,355,1.0,5.0,58,0.00,,---,0.02,VWS V13.00,2013-11-14 01:03:00,
2013-11-13 20:08:00,35.5,22.2,30.50,North,355,1.0,5.0,58,0.00,,---,0.02,VWS V13.00,2013-11-14 01:08:00,
2013-11-13 20:13:00,35.2,21.9,30.50,NNW,340,2.0,6.0,58,0.00,,---,0.02,VWS V13.00,2013-11-14 01:13:00,
2013-11-13 20:18:00,35.2,21.9,30.50,NNW,338,2.0,8.0,58,0.00,,---,0.02,VWS V13.00,2013-11-14 01:18:00,
2013-11-13 20:23:00,35.1,21.8,30.50,NNW,343,3.0,8.0,58,0.00,,---,0.02,VWS V13.00,2013-11-14 01:23:00,
2013-11-13 20:28:00,35.2,22.3,30.50,NE,37,4.0,8.0,59,0.00,,---,0.02,VWS V13.00,2013-11-14 01:28:00,
2013-11-13 20:33:00,35.3,22.4,30.50,North,355,3.0,4.0,59,0.00,,---,0.02,VWS V13.00,2013-11-14 01:33:00,
2013-11-13 20:38:00,35.2,22.3,30.50,NNW,333,0.0,7.0,59,0.00,,---,0.02,VWS V13.00,2013-11-14 01:38:00,
2013-11-13 20:43:00,35.0,22.1,30.50,NNW,343,1.0,7.0,59,0.00,,---,0.02,VWS V13.00,2013-11-14 01:43:00,
2013-11-13 20:48:00,34.8,22.0,30.50,NNE,15,1.0,7.0,59,0.00,,---,0.02,VWS V13.00,2013-11-14 01:48:00,
2013-11-13 20:53:00,34.6,21.8,30.50,NNW,342,0.0,7.0,59,0.00,,---,0.02,VWS V13.00,2013-11-14 01:53:00,
2013-11-13 20:58:00,34.4,21.6,30.50,North,355,3.0,7.0,59,0.00,,---,0.02,VWS V13.00,2013-11-14 01:58:00,
2013-11-13 21:03:00,34.3,21.5,30.50,North,355,0.0,3.0,59,0.00,,---,0.02,VWS V13.00,2013-11-14 02:03:00,
2013-11-13 21:08:00,34.0,21.2,30.51,NNW,333,0.0,5.0,59,0.00,,---,0.02,VWS V13.00,2013-11-14 02:08:00,
2013-11-13 21:13:00,33.8,21.0,30.50,NNW,348,1.0,5.0,59,0.00,,---,0.02,VWS V13.00,2013-11-14 02:13:00,
2013-11-13 21:18:00,33.5,21.1,30.50,North,5,0.0,5.0,60,0.00,,---,0.02,VWS V13.00,2013-11-14 02:18:00,
2013-11-13 21:23:00,33.3,20.9,30.50,North,350,1.0,5.0,60,0.00,,---,0.02,VWS V13.00,2013-11-14 02:23:00,
2013-11-13 21:28:00,33.0,20.6,30.50,North,355,3.0,5.0,60,0.00,,---,0.02,VWS V13.00,2013-11-14 02:28:00,
2013-11-13 21:33:00,33.0,20.6,30.50,North,5,3.0,6.0,60,0.00,,---,0.02,VWS V13.00,2013-11-14 02:33:00,
2013-11-13 21:38:00,32.8,20.5,30.50,NNW,338,2.0,6.0,60,0.00,,---,0.02,VWS V13.00,2013-11-14 02:38:00,
2013-11-13 21:43:00,32.8,20.5,30.50,North,5,3.0,6.0,60,0.00,,---,0.02,VWS V13.00,2013-11-14 02:43:00,
2013-11-13 21:48:00,32.7,20.8,30.50,North,355,1.0,6.0,61,0.00,,---,0.02,VWS V13.00,2013-11-14 02:48:00,
2013-11-13 21:53:00,32.6,20.3,30.51,North,355,0.0,6.0,60,0.00,,---,0.02,VWS V13.00,2013-11-14 02:53:00,
2013-11-13 21:58:00,32.5,20.6,30.51,North,355,1.0,6.0,61,0.00,,---,0.02,VWS V13.00,2013-11-14 02:58:00,
2013-11-13 22:03:00,32.4,20.5,30.50,North,360,1.0,3.0,61,0.00,,---,0.02,VWS V13.00,2013-11-14 03:03:00,
2013-11-13 22:08:00,32.2,20.3,30.50,North,360,1.0,3.0,61,0.00,,---,0.02,VWS V13.00,2013-11-14 03:08:00,
2013-11-13 22:13:00,32.0,20.1,30.50,North,360,1.0,3.0,61,0.00,,---,0.02,VWS V13.00,2013-11-14 03:13:00,
2013-11-13 22:18:00,31.8,19.9,30.50,North,360,0.0,3.0,61,0.00,,---,0.02,VWS V13.00,2013-11-14 03:18:00,
2013-11-13 22:23:00,31.6,19.7,30.50,North,360,1.0,3.0,61,0.00,,---,0.02,VWS V13.00,2013-11-14 03:23:00,
2013-11-13 22:28:00,31.4,19.5,30.50,North,360,0.0,3.0,61,0.00,,---,0.02,VWS V13.00,2013-11-14 03:28:00,
2013-11-13 22:33:00,31.1,19.6,30.50,North,360,0.0,4.0,62,0.00,,---,0.02,VWS V13.00,2013-11-14 03:33:00,
2013-11-13 22:38:00,31.0,19.5,30.49,North,360,0.0,4.0,62,0.00,,---,0.02,VWS V13.00,2013-11-14 03:38:00,
2013-11-13 22:43:00,30.8,19.3,30.49,North,360,2.0,4.0,62,0.00,,---,0.02,VWS V13.00,2013-11-14 03:43:00,
2013-11-13 22:48:00,30.7,19.2,30.49,NNW,333,1.0,4.0,62,0.00,,---,0.02,VWS V13.00,2013-11-14 03:48:00,
2013-11-13 22:53:00,30.6,19.1,30.49,North,350,1.0,4.0,62,0.00,,---,0.02,VWS V13.00,2013-11-14 03:53:00,
2013-11-13 22:58:00,30.6,19.1,30.49,NNW,346,2.0,4.0,62,0.00,,---,0.02,VWS V13.00,2013-11-14 03:58:00,
2013-11-13 23:03:00,30.6,19.5,30.49,NNW,338,3.0,4.0,63,0.00,,---,0.02,VWS V13.00,2013-11-14 04:03:00,
2013-11-13 23:08:00,30.7,19.6,30.49,North,355,2.0,4.0,63,0.00,,---,0.02,VWS V13.00,2013-11-14 04:08:00,
2013-11-13 23:13:00,30.7,19.6,30.49,NW,318,0.0,4.0,63,0.00,,---,0.02,VWS V13.00,2013-11-14 04:13:00,
2013-11-13 23:18:00,30.7,19.6,30.49,NNW,334,3.0,4.0,63,0.00,,---,0.02,VWS V13.00,2013-11-14 04:18:00,
2013-11-13 23:23:00,30.6,19.5,30.49,NNW,332,2.0,4.0,63,0.00,,---,0.02,VWS V13.00,2013-11-14 04:23:00,
2013-11-13 23:28:00,30.6,19.5,30.49,NW,323,2.0,4.0,63,0.00,,---,0.02,VWS V13.00,2013-11-14 04:28:00,
2013-11-13 23:33:00,30.5,19.4,30.49,NW,323,3.0,3.0,63,0.00,,---,0.02,VWS V13.00,2013-11-14 04:33:00,
2013-11-13 23:38:00,30.5,19.4,30.48,NW,323,2.0,3.0,63,0.00,,---,0.02,VWS V13.00,2013-11-14 04:38:00,
2013-11-13 23:43:00,30.5,19.4,30.48,NNW,329,2.0,3.0,63,0.00,,---,0.02,VWS V13.00,2013-11-14 04:43:00,
2013-11-13 23:48:00,30.5,19.4,30.48,NNW,346,1.0,3.0,63,0.00,,---,0.02,VWS V13.00,2013-11-14 04:48:00,
2013-11-13 23:53:00,30.5,19.8,30.48,NW,308,1.0,3.0,64,0.00,,---,0.02,VWS V13.00,2013-11-14 04:53:00,
2013-11-13 23:58:00,30.4,19.7,30.48,NW,318,2.0,3.0,64,0.00,,---,0.02,VWS V13.00,2013-11-14 04:58:00,